Vega Sigma — D5EV6 — position and weather

sailwx.info

Track history (hours):
 
Tides and Currents Weather Stations Pressure Air Temp Water Temp Dewpoint Dewpoint Depression Visibility Wind Speed Wind Dir Waves Ship Positions

Vega Sigma

Last reported at 2017-Oct-15 04:05 UTC. Time now 2017-Oct-18 15:17 UTC.
Position N 41°19' E 002°12'.

Length 148 m; draft 7.2 m.

Type: Cargo ship. MMSI: 636092527.

Date/timePositionNaut miles runAvg speedWind from/ knotsBaromVisibWave heightAir tempDewpointWater temp
2017-Oct-15 04:05N 41°19' E 002°12'9610.6
2017-Oct-14 19:05N 42°15' E 003°55'110.2
2017-Oct-14 19:00N 42°16' E 003°56'911.5
2017-Oct-14 18:14N 42°24' E 004°01'411.5
2017-Oct-14 17:53N 42°28' E 004°04'511.6
2017-Oct-14 17:27N 42°32' E 004°07'911.9
2017-Oct-14 16:43N 42°38' E 004°15'1211.8
2017-Oct-14 15:44N 42°46' E 004°27'511.8
2017-Oct-14 15:18N 42°50' E 004°31'1211.7
2017-Oct-14 14:16N 42°59' E 004°43'511.7
2017-Oct-14 13:49N 43°02' E 004°48'411.7
2017-Oct-14 13:28N 43°05' E 004°52'511.8
2017-Oct-14 13:00N 43°09' E 004°57'510.4
2017-Oct-14 12:30N 43°14' E 005°00'511.2
2017-Oct-14 12:00N 43°19' E 004°58'5 9.6
2017-Oct-14 11:31N 43°24' E 004°55'4 4.6
2017-Oct-14 10:39N 43°25' E 004°50'0 0.0
2017-Oct-14 10:30N 43°25' E 004°50'0 0.0
2017-Oct-14 09:48N 43°25' E 004°50'0 0.0
2017-Oct-14 09:27N 43°25' E 004°50'0 0.0
2017-Oct-14 08:57N 43°25' E 004°50'0 0.0
2017-Oct-14 07:42N 43°25' E 004°50'0 0.0
2017-Oct-14 07:30N 43°25' E 004°50'0 0.0
2017-Oct-14 05:42N 43°25' E 004°50'0 0.0
2017-Oct-14 05:15N 43°25' E 004°50'0 0.0
2017-Oct-14 04:24N 43°25' E 004°50'1 1.3
2017-Oct-14 03:52N 43°25' E 004°51'4 9.6
2017-Oct-14 03:27N 43°23' E 004°56'4 9.7
2017-Oct-14 03:00N 43°20' E 004°59'510.6
2017-Oct-14 02:30N 43°15' E 005°01'811.6
2017-Oct-14 01:51N 43°09' E 005°09'1011.9
2017-Oct-14 01:03N 43°05' E 005°20'112.1
2017-Oct-14 00:59N 43°04' E 005°21'3911.7
2017-Oct-13 21:41N 42°53' E 006°11'412.4
2017-Oct-13 21:22N 42°53' E 006°17'3312.0
2017-Oct-13 18:35N 43°03' E 007°00'111.7
2017-Oct-13 18:30N 43°03' E 007°01'611.5
2017-Oct-13 18:00N 43°05' E 007°09'911.6
2017-Oct-13 17:13N 43°08' E 007°21'311.7
2017-Oct-13 16:59N 43°09' E 007°24'3911.8
2017-Oct-13 13:42N 43°24' E 008°13'313.2
2017-Oct-13 13:29N 43°25' E 008°17'4 6.0
2017-Oct-13 12:48N 43°23' E 008°12'611.0
2017-Oct-13 12:18N 43°26' E 008°18'311.7
2017-Oct-13 12:00N 43°28' E 008°22'611.3
2017-Oct-13 11:30N 43°31' E 008°29'611.6
2017-Oct-13 11:00N 43°33' E 008°36'611.6
2017-Oct-13 10:30N 43°36' E 008°43'611.6
2017-Oct-13 10:00N 43°39' E 008°50'611.5
2017-Oct-13 09:30N 43°42' E 008°57'611.5
2017-Oct-13 09:00N 43°45' E 009°04'511.1
2017-Oct-13 08:30N 43°46' E 009°11'611.2
2017-Oct-13 08:00N 43°49' E 009°18'611.6
2017-Oct-13 07:30N 43°51' E 009°25'611.4
2017-Oct-13 07:00N 43°54' E 009°32'611.8
2017-Oct-13 06:30N 43°56' E 009°40'611.8
2017-Oct-13 06:00N 43°57' E 009°48'2 4.3
2017-Oct-13 05:28N 43°58' E 009°51'0 0.0
2017-Oct-13 04:58N 43°58' E 009°51'0 0.0
2017-Oct-13 04:28N 43°58' E 009°51'0 0.0
2017-Oct-13 03:58N 43°58' E 009°51'0 0.0
2017-Oct-13 03:28N 43°58' E 009°51'0 0.0
2017-Oct-13 02:52N 43°58' E 009°51'0 0.0
2017-Oct-13 02:28N 43°58' E 009°51'0 0.0
2017-Oct-13 01:58N 43°58' E 009°51'0 0.0
2017-Oct-13 01:25N 43°58' E 009°51'0 0.0
2017-Oct-13 00:58N 43°58' E 009°51'0 0.0
2017-Oct-13 00:28N 43°58' E 009°51'0 0.0
2017-Oct-12 23:58N 43°58' E 009°51'0 0.0
2017-Oct-12 23:28N 43°58' E 009°51'0 0.0
2017-Oct-12 22:58N 43°58' E 009°51'0 0.0
2017-Oct-12 22:28N 43°58' E 009°51'0 0.0
2017-Oct-12 21:58N 43°58' E 009°51'0 0.0
2017-Oct-12 21:25N 43°58' E 009°51'0 0.0
2017-Oct-12 20:58N 43°58' E 009°51'0 0.1
2017-Oct-12 20:28N 43°58' E 009°51'0 0.1
2017-Oct-12 19:46N 43°58' E 009°51'0 0.0
2017-Oct-12 19:28N 43°58' E 009°51'0 0.0
2017-Oct-12 18:55N 43°58' E 009°51'0 0.0
2017-Oct-12 18:28N 43°58' E 009°51'0 0.0
2017-Oct-12 17:58N 43°58' E 009°51'0 0.0
2017-Oct-12 17:25N 43°58' E 009°51'0 0.0
2017-Oct-12 16:55N 43°58' E 009°51'0 0.0
2017-Oct-12 16:28N 43°58' E 009°51'0 0.0
2017-Oct-12 15:55N 43°58' E 009°51'0 0.0
2017-Oct-12 15:13N 43°58' E 009°51'0 0.0
2017-Oct-12 14:58N 43°58' E 009°51'0 0.0
2017-Oct-12 14:22N 43°58' E 009°51'9 1.3
2017-Oct-12 07:32N 44°07' E 009°51'0 0.0
2017-Oct-12 07:17N 44°07' E 009°51'0 0.0
2017-Oct-12 06:56N 44°07' E 009°51'0 0.0
2017-Oct-12 06:23N 44°07' E 009°51'0 0.0
2017-Oct-12 05:59N 44°07' E 009°51'0 0.0
2017-Oct-12 05:29N 44°07' E 009°51'0 0.0
2017-Oct-12 04:53N 44°07' E 009°51'0 0.0
2017-Oct-12 04:29N 44°07' E 009°51'0 0.0
2017-Oct-12 03:56N 44°07' E 009°51'0 0.0
2017-Oct-12 03:29N 44°07' E 009°51'0 0.0
2017-Oct-12 02:59N 44°07' E 009°51'0 0.0
2017-Oct-12 02:29N 44°07' E 009°51'0 0.0
2017-Oct-12 01:59N 44°07' E 009°51'0 0.0
2017-Oct-12 01:29N 44°07' E 009°51'0 0.0
2017-Oct-12 00:59N 44°07' E 009°51'0 0.0
2017-Oct-12 00:29N 44°07' E 009°51'0 0.0
2017-Oct-11 23:59N 44°07' E 009°51'0 0.0
2017-Oct-11 23:29N 44°07' E 009°51'0 0.0
2017-Oct-11 22:59N 44°07' E 009°51'0 0.0
2017-Oct-11 22:29N 44°07' E 009°51'0 0.0
2017-Oct-11 21:59N 44°07' E 009°51'0 0.0
2017-Oct-11 21:29N 44°07' E 009°51'0 0.0
2017-Oct-11 20:59N 44°07' E 009°51'0 0.0
2017-Oct-11 20:23N 44°07' E 009°51'0 0.0
2017-Oct-11 19:59N 44°07' E 009°51'0 0.0
2017-Oct-11 19:29N 44°07' E 009°51'0 0.0
2017-Oct-11 18:59N 44°07' E 009°51'0 0.0
2017-Oct-11 18:28N 44°07' E 009°51'0 0.0
2017-Oct-11 17:58N 44°07' E 009°51'0 0.0
2017-Oct-11 17:28N 44°07' E 009°51'0 0.0
2017-Oct-11 16:58N 44°07' E 009°51'7 0.4
2017-Oct-10 23:56N 43°59' E 009°51'0 0.0
2017-Oct-10 23:26N 43°59' E 009°51'0 0.0
2017-Oct-10 22:56N 43°59' E 009°51'0 0.0
2017-Oct-10 22:26N 43°59' E 009°51'0 0.0
2017-Oct-10 21:56N 43°59' E 009°51'0 0.0
2017-Oct-10 21:26N 43°59' E 009°51'0 0.0
2017-Oct-10 20:56N 43°59' E 009°51'0 0.0
2017-Oct-10 20:26N 43°59' E 009°51'0 0.1
2017-Oct-10 19:56N 43°59' E 009°51'0 0.1
2017-Oct-10 19:26N 43°59' E 009°51'0 0.0
2017-Oct-10 18:56N 43°59' E 009°51'0 0.0
2017-Oct-10 18:26N 43°59' E 009°51'0 0.0
2017-Oct-10 17:50N 43°59' E 009°51'0 0.0
2017-Oct-10 17:26N 43°59' E 009°51'0 0.0
2017-Oct-10 16:56N 43°59' E 009°51'0 0.0
2017-Oct-10 16:26N 43°59' E 009°51'0 0.0
2017-Oct-10 15:56N 43°59' E 009°51'0 0.0
2017-Oct-10 15:26N 43°59' E 009°51'0 0.0
2017-Oct-10 14:56N 43°59' E 009°51'0 0.0
2017-Oct-10 13:56N 43°59' E 009°51'0 0.1
2017-Oct-10 13:26N 43°59' E 009°51'0 0.0
2017-Oct-10 12:56N 43°59' E 009°51'0 0.0
2017-Oct-10 12:26N 43°59' E 009°51'0 0.2
2017-Oct-10 11:56N 43°59' E 009°51'0 0.0
2017-Oct-10 11:26N 43°59' E 009°51'0 0.1
2017-Oct-10 10:56N 43°59' E 009°51'0 0.0
2017-Oct-10 10:26N 43°59' E 009°51'0 0.0
2017-Oct-10 09:50N 43°59' E 009°51'0 0.0
2017-Oct-10 09:26N 43°59' E 009°51'0 0.0
2017-Oct-10 08:56N 43°59' E 009°51'0 0.0
2017-Oct-10 08:26N 43°59' E 009°51'0 0.0
2017-Oct-10 07:56N 43°59' E 009°51'0 0.0
2017-Oct-10 07:26N 43°59' E 009°51'0 0.0
2017-Oct-10 06:56N 43°59' E 009°51'0 0.0
2017-Oct-10 06:26N 43°59' E 009°51'0 0.1
2017-Oct-10 05:56N 43°59' E 009°51'0 0.4
2017-Oct-10 05:29N 43°59' E 009°51'2 4.6
2017-Oct-10 05:00N 43°57' E 009°51'5 9.9
2017-Oct-10 04:30N 43°53' E 009°49'612.3
2017-Oct-10 04:00N 43°48' E 009°43'612.1
2017-Oct-10 03:30N 43°44' E 009°37'612.3
2017-Oct-10 03:00N 43°39' E 009°31'612.6
2017-Oct-10 02:30N 43°35' E 009°25'612.6
2017-Oct-10 02:00N 43°31' E 009°19'612.6
2017-Oct-10 01:30N 43°26' E 009°12'612.4
2017-Oct-10 01:00N 43°22' E 009°06'612.4
2017-Oct-10 00:30N 43°17' E 009°00'34311.6
2017-Oct-08 18:54N 39°23' E 003°27'512.3
2017-Oct-08 18:30N 39°20' E 003°22'1012.2
2017-Oct-08 17:42N 39°13' E 003°13'212.5
2017-Oct-08 17:30N 39°12' E 003°11'612.4
2017-Oct-08 17:00N 39°07' E 003°05'17211.7
2017-Oct-08 02:16N 36°57' E 000°43'1312.0
2017-Oct-08 01:13N 36°48' E 000°31'312.2
2017-Oct-08 01:00N 36°46' E 000°29'712.3
2017-Oct-08 00:25N 36°41' E 000°23'77 2.9
2017-Oct-06 22:21N 35°43' W 000°38'0 0.0
2017-Oct-06 20:38N 35°43' W 000°38'0 0.0
2017-Oct-06 19:45N 35°43' W 000°38'0 0.0
2017-Oct-06 19:27N 35°43' W 000°38'0 0.0
2017-Oct-06 18:59N 35°43' W 000°38'0 0.0
2017-Oct-06 16:09N 35°43' W 000°38'0 0.0
2017-Oct-06 15:51N 35°43' W 000°38'0 0.0
2017-Oct-06 02:39N 35°43' W 000°38'0 0.0
2017-Oct-06 02:15N 35°43' W 000°38'0 0.0
2017-Oct-06 01:57N 35°43' W 000°38'0 0.0
2017-Oct-06 01:27N 35°43' W 000°38'0 0.0
2017-Oct-06 00:57N 35°43' W 000°38'0 0.0
2017-Oct-06 00:27N 35°43' W 000°38'0 0.0
2017-Oct-05 23:57N 35°43' W 000°38'0 0.0
2017-Oct-05 23:29N 35°43' W 000°38'0 0.0
2017-Oct-05 22:51N 35°43' W 000°38'0 0.0
2017-Oct-05 21:27N 35°43' W 000°38'0 0.0
2017-Oct-05 20:57N 35°43' W 000°38'0 0.0
2017-Oct-05 20:09N 35°43' W 000°38'0 0.0
2017-Oct-05 20:00N 35°43' W 000°38'0 0.0
2017-Oct-05 19:26N 35°43' W 000°38'0 0.0
2017-Oct-05 18:57N 35°43' W 000°38'0 0.0
2017-Oct-05 18:27N 35°43' W 000°38'0 0.0
2017-Oct-05 17:58N 35°43' W 000°38'0 0.0
2017-Oct-05 17:27N 35°43' W 000°38'0 0.0
2017-Oct-05 16:51N 35°43' W 000°38'0 0.0
2017-Oct-05 15:27N 35°43' W 000°38'0 0.0
2017-Oct-05 14:51N 35°43' W 000°38'  
Track history (hours):
 
Tides and Currents Weather Stations Pressure Air Temp Water Temp Dewpoint Dewpoint Depression Visibility Wind Speed Wind Dir Waves Ship Positions

Vega Sigma

Last reported at 2017-Oct-15 04:05 UTC. Time now 2017-Oct-18 15:17 UTC.
Position N 41°19' E 002°12'.

Length 148 m; draft 7.2 m.

Type: Cargo ship. MMSI: 636092527.

Date/timePositionNaut miles runAvg speedWind from/ knotsBaromVisibWave heightAir tempDewpointWater temp
2017-Oct-15 04:05N 41°19' E 002°12'9610.6
2017-Oct-14 19:05N 42°15' E 003°55'110.2
2017-Oct-14 19:00N 42°16' E 003°56'911.5
2017-Oct-14 18:14N 42°24' E 004°01'411.5
2017-Oct-14 17:53N 42°28' E 004°04'511.6
2017-Oct-14 17:27N 42°32' E 004°07'911.9
2017-Oct-14 16:43N 42°38' E 004°15'1211.8
2017-Oct-14 15:44N 42°46' E 004°27'511.8
2017-Oct-14 15:18N 42°50' E 004°31'1211.7
2017-Oct-14 14:16N 42°59' E 004°43'511.7
2017-Oct-14 13:49N 43°02' E 004°48'411.7
2017-Oct-14 13:28N 43°05' E 004°52'511.8
2017-Oct-14 13:00N 43°09' E 004°57'510.4
2017-Oct-14 12:30N 43°14' E 005°00'511.2
2017-Oct-14 12:00N 43°19' E 004°58'5 9.6
2017-Oct-14 11:31N 43°24' E 004°55'4 4.6
2017-Oct-14 10:39N 43°25' E 004°50'0 0.0
2017-Oct-14 10:30N 43°25' E 004°50'0 0.0
2017-Oct-14 09:48N 43°25' E 004°50'0 0.0
2017-Oct-14 09:27N 43°25' E 004°50'0 0.0
2017-Oct-14 08:57N 43°25' E 004°50'0 0.0
2017-Oct-14 07:42N 43°25' E 004°50'0 0.0
2017-Oct-14 07:30N 43°25' E 004°50'0 0.0
2017-Oct-14 05:42N 43°25' E 004°50'0 0.0
2017-Oct-14 05:15N 43°25' E 004°50'0 0.0
2017-Oct-14 04:24N 43°25' E 004°50'1 1.3
2017-Oct-14 03:52N 43°25' E 004°51'4 9.6
2017-Oct-14 03:27N 43°23' E 004°56'4 9.7
2017-Oct-14 03:00N 43°20' E 004°59'510.6
2017-Oct-14 02:30N 43°15' E 005°01'811.6
2017-Oct-14 01:51N 43°09' E 005°09'1011.9
2017-Oct-14 01:03N 43°05' E 005°20'112.1
2017-Oct-14 00:59N 43°04' E 005°21'3911.7
2017-Oct-13 21:41N 42°53' E 006°11'412.4
2017-Oct-13 21:22N 42°53' E 006°17'3312.0
2017-Oct-13 18:35N 43°03' E 007°00'111.7
2017-Oct-13 18:30N 43°03' E 007°01'611.5
2017-Oct-13 18:00N 43°05' E 007°09'911.6
2017-Oct-13 17:13N 43°08' E 007°21'311.7
2017-Oct-13 16:59N 43°09' E 007°24'3911.8
2017-Oct-13 13:42N 43°24' E 008°13'313.2
2017-Oct-13 13:29N 43°25' E 008°17'4 6.0
2017-Oct-13 12:48N 43°23' E 008°12'611.0
2017-Oct-13 12:18N 43°26' E 008°18'311.7
2017-Oct-13 12:00N 43°28' E 008°22'611.3
2017-Oct-13 11:30N 43°31' E 008°29'611.6
2017-Oct-13 11:00N 43°33' E 008°36'611.6
2017-Oct-13 10:30N 43°36' E 008°43'611.6
2017-Oct-13 10:00N 43°39' E 008°50'611.5
2017-Oct-13 09:30N 43°42' E 008°57'611.5
2017-Oct-13 09:00N 43°45' E 009°04'511.1
2017-Oct-13 08:30N 43°46' E 009°11'611.2
2017-Oct-13 08:00N 43°49' E 009°18'611.6
2017-Oct-13 07:30N 43°51' E 009°25'611.4
2017-Oct-13 07:00N 43°54' E 009°32'611.8
2017-Oct-13 06:30N 43°56' E 009°40'611.8
2017-Oct-13 06:00N 43°57' E 009°48'2 4.3
2017-Oct-13 05:28N 43°58' E 009°51'0 0.0
2017-Oct-13 04:58N 43°58' E 009°51'0 0.0
2017-Oct-13 04:28N 43°58' E 009°51'0 0.0
2017-Oct-13 03:58N 43°58' E 009°51'0 0.0
2017-Oct-13 03:28N 43°58' E 009°51'0 0.0
2017-Oct-13 02:52N 43°58' E 009°51'0 0.0
2017-Oct-13 02:28N 43°58' E 009°51'0 0.0
2017-Oct-13 01:58N 43°58' E 009°51'0 0.0
2017-Oct-13 01:25N 43°58' E 009°51'0 0.0
2017-Oct-13 00:58N 43°58' E 009°51'0 0.0
2017-Oct-13 00:28N 43°58' E 009°51'0 0.0
2017-Oct-12 23:58N 43°58' E 009°51'0 0.0
2017-Oct-12 23:28N 43°58' E 009°51'0 0.0
2017-Oct-12 22:58N 43°58' E 009°51'0 0.0
2017-Oct-12 22:28N 43°58' E 009°51'0 0.0
2017-Oct-12 21:58N 43°58' E 009°51'0 0.0
2017-Oct-12 21:25N 43°58' E 009°51'0 0.0
2017-Oct-12 20:58N 43°58' E 009°51'0 0.1
2017-Oct-12 20:28N 43°58' E 009°51'0 0.1
2017-Oct-12 19:46N 43°58' E 009°51'0 0.0
2017-Oct-12 19:28N 43°58' E 009°51'0 0.0
2017-Oct-12 18:55N 43°58' E 009°51'0 0.0
2017-Oct-12 18:28N 43°58' E 009°51'0 0.0
2017-Oct-12 17:58N 43°58' E 009°51'0 0.0
2017-Oct-12 17:25N 43°58' E 009°51'0 0.0
2017-Oct-12 16:55N 43°58' E 009°51'0 0.0
2017-Oct-12 16:28N 43°58' E 009°51'0 0.0
2017-Oct-12 15:55N 43°58' E 009°51'0 0.0
2017-Oct-12 15:13N 43°58' E 009°51'0 0.0
2017-Oct-12 14:58N 43°58' E 009°51'0 0.0
2017-Oct-12 14:22N 43°58' E 009°51'9 1.3
2017-Oct-12 07:32N 44°07' E 009°51'0 0.0
2017-Oct-12 07:17N 44°07' E 009°51'0 0.0
2017-Oct-12 06:56N 44°07' E 009°51'0 0.0
2017-Oct-12 06:23N 44°07' E 009°51'0 0.0
2017-Oct-12 05:59N 44°07' E 009°51'0 0.0
2017-Oct-12 05:29N 44°07' E 009°51'0 0.0
2017-Oct-12 04:53N 44°07' E 009°51'0 0.0
2017-Oct-12 04:29N 44°07' E 009°51'0 0.0
2017-Oct-12 03:56N 44°07' E 009°51'0 0.0
2017-Oct-12 03:29N 44°07' E 009°51'0 0.0
2017-Oct-12 02:59N 44°07' E 009°51'0 0.0
2017-Oct-12 02:29N 44°07' E 009°51'0 0.0
2017-Oct-12 01:59N 44°07' E 009°51'0 0.0
2017-Oct-12 01:29N 44°07' E 009°51'0 0.0
2017-Oct-12 00:59N 44°07' E 009°51'0 0.0
2017-Oct-12 00:29N 44°07' E 009°51'0 0.0
2017-Oct-11 23:59N 44°07' E 009°51'0 0.0
2017-Oct-11 23:29N 44°07' E 009°51'0 0.0
2017-Oct-11 22:59N 44°07' E 009°51'0 0.0
2017-Oct-11 22:29N 44°07' E 009°51'0 0.0
2017-Oct-11 21:59N 44°07' E 009°51'0 0.0
2017-Oct-11 21:29N 44°07' E 009°51'0 0.0
2017-Oct-11 20:59N 44°07' E 009°51'0 0.0
2017-Oct-11 20:23N 44°07' E 009°51'0 0.0
2017-Oct-11 19:59N 44°07' E 009°51'0 0.0
2017-Oct-11 19:29N 44°07' E 009°51'0 0.0
2017-Oct-11 18:59N 44°07' E 009°51'0 0.0
2017-Oct-11 18:28N 44°07' E 009°51'0 0.0
2017-Oct-11 17:58N 44°07' E 009°51'0 0.0
2017-Oct-11 17:28N 44°07' E 009°51'0 0.0
2017-Oct-11 16:58N 44°07' E 009°51'7 0.4
2017-Oct-10 23:56N 43°59' E 009°51'0 0.0
2017-Oct-10 23:26N 43°59' E 009°51'0 0.0
2017-Oct-10 22:56N 43°59' E 009°51'0 0.0
2017-Oct-10 22:26N 43°59' E 009°51'0 0.0
2017-Oct-10 21:56N 43°59' E 009°51'0 0.0
2017-Oct-10 21:26N 43°59' E 009°51'0 0.0
2017-Oct-10 20:56N 43°59' E 009°51'0 0.0
2017-Oct-10 20:26N 43°59' E 009°51'0 0.1
2017-Oct-10 19:56N 43°59' E 009°51'0 0.1
2017-Oct-10 19:26N 43°59' E 009°51'0 0.0
2017-Oct-10 18:56N 43°59' E 009°51'0 0.0
2017-Oct-10 18:26N 43°59' E 009°51'0 0.0
2017-Oct-10 17:50N 43°59' E 009°51'0 0.0
2017-Oct-10 17:26N 43°59' E 009°51'0 0.0
2017-Oct-10 16:56N 43°59' E 009°51'0 0.0
2017-Oct-10 16:26N 43°59' E 009°51'0 0.0
2017-Oct-10 15:56N 43°59' E 009°51'0 0.0
2017-Oct-10 15:26N 43°59' E 009°51'0 0.0
2017-Oct-10 14:56N 43°59' E 009°51'0 0.0
2017-Oct-10 13:56N 43°59' E 009°51'0 0.1
2017-Oct-10 13:26N 43°59' E 009°51'0 0.0
2017-Oct-10 12:56N 43°59' E 009°51'0 0.0
2017-Oct-10 12:26N 43°59' E 009°51'0 0.2
2017-Oct-10 11:56N 43°59' E 009°51'0 0.0
2017-Oct-10 11:26N 43°59' E 009°51'0 0.1
2017-Oct-10 10:56N 43°59' E 009°51'0 0.0
2017-Oct-10 10:26N 43°59' E 009°51'0 0.0
2017-Oct-10 09:50N 43°59' E 009°51'0 0.0
2017-Oct-10 09:26N 43°59' E 009°51'0 0.0
2017-Oct-10 08:56N 43°59' E 009°51'0 0.0
2017-Oct-10 08:26N 43°59' E 009°51'0 0.0
2017-Oct-10 07:56N 43°59' E 009°51'0 0.0
2017-Oct-10 07:26N 43°59' E 009°51'0 0.0
2017-Oct-10 06:56N 43°59' E 009°51'0 0.0
2017-Oct-10 06:26N 43°59' E 009°51'0 0.1
2017-Oct-10 05:56N 43°59' E 009°51'0 0.4
2017-Oct-10 05:29N 43°59' E 009°51'2 4.6
2017-Oct-10 05:00N 43°57' E 009°51'5 9.9
2017-Oct-10 04:30N 43°53' E 009°49'612.3
2017-Oct-10 04:00N 43°48' E 009°43'612.1
2017-Oct-10 03:30N 43°44' E 009°37'612.3
2017-Oct-10 03:00N 43°39' E 009°31'612.6
2017-Oct-10 02:30N 43°35' E 009°25'612.6
2017-Oct-10 02:00N 43°31' E 009°19'612.6
2017-Oct-10 01:30N 43°26' E 009°12'612.4
2017-Oct-10 01:00N 43°22' E 009°06'612.4
2017-Oct-10 00:30N 43°17' E 009°00'34311.6
2017-Oct-08 18:54N 39°23' E 003°27'512.3
2017-Oct-08 18:30N 39°20' E 003°22'1012.2
2017-Oct-08 17:42N 39°13' E 003°13'212.5
2017-Oct-08 17:30N 39°12' E 003°11'612.4
2017-Oct-08 17:00N 39°07' E 003°05'17211.7
2017-Oct-08 02:16N 36°57' E 000°43'1312.0
2017-Oct-08 01:13N 36°48' E 000°31'312.2
2017-Oct-08 01:00N 36°46' E 000°29'712.3
2017-Oct-08 00:25N 36°41' E 000°23'77 2.9
2017-Oct-06 22:21N 35°43' W 000°38'0 0.0
2017-Oct-06 20:38N 35°43' W 000°38'0 0.0
2017-Oct-06 19:45N 35°43' W 000°38'0 0.0
2017-Oct-06 19:27N 35°43' W 000°38'0 0.0
2017-Oct-06 18:59N 35°43' W 000°38'0 0.0
2017-Oct-06 16:09N 35°43' W 000°38'0 0.0
2017-Oct-06 15:51N 35°43' W 000°38'0 0.0
2017-Oct-06 02:39N 35°43' W 000°38'0 0.0
2017-Oct-06 02:15N 35°43' W 000°38'0 0.0
2017-Oct-06 01:57N 35°43' W 000°38'0 0.0
2017-Oct-06 01:27N 35°43' W 000°38'0 0.0
2017-Oct-06 00:57N 35°43' W 000°38'0 0.0
2017-Oct-06 00:27N 35°43' W 000°38'0 0.0
2017-Oct-05 23:57N 35°43' W 000°38'0 0.0
2017-Oct-05 23:29N 35°43' W 000°38'0 0.0
2017-Oct-05 22:51N 35°43' W 000°38'0 0.0
2017-Oct-05 21:27N 35°43' W 000°38'0 0.0
2017-Oct-05 20:57N 35°43' W 000°38'0 0.0
2017-Oct-05 20:09N 35°43' W 000°38'0 0.0
2017-Oct-05 20:00N 35°43' W 000°38'0 0.0
2017-Oct-05 19:26N 35°43' W 000°38'0 0.0
2017-Oct-05 18:57N 35°43' W 000°38'0 0.0
2017-Oct-05 18:27N 35°43' W 000°38'0 0.0
2017-Oct-05 17:58N 35°43' W 000°38'0 0.0
2017-Oct-05 17:27N 35°43' W 000°38'0 0.0
2017-Oct-05 16:51N 35°43' W 000°38'0 0.0
2017-Oct-05 15:27N 35°43' W 000°38'0 0.0
2017-Oct-05 14:51N 35°43' W 000°38'  

Dump ship's entire track history